Tortuguitas, Argentina
Current Conditions -  °F | °C
As of 8:00 PM on Sunday 21 Dec 2014 (Local Time) from SADF Reporting Station
Scattered Clouds Scattered Clouds  
Wind Chill: 70°   Ceiling: Unl
Heat Index: 70°   Visibility: 6mi
Dew Point: 48°   Wind: 3mph
Humidity: 46%   Direction: 180°S
Pressure: 29.8"   Gusts: NA
Location:  34.47°S, 58.77°W
Report Text: SADF 212300Z 18003KT 9999 FEW035 SCT100 21/09 Q1009
Loading
Personal Weather Stations






























Interactive Weather Map New forecast layout! Learn more

10-Day Weather Forecast

Advertisements
Track Severe Weather on mobile